createdAt,value
2018-12-17T00:01:30.654Z,3.80
2018-12-17T00:03:58.896Z,3.70
2018-12-17T00:06:27.118Z,3.80
2018-12-17T00:08:55.322Z,3.80
2018-12-17T00:11:23.528Z,3.80
2018-12-17T00:13:51.745Z,3.80
2018-12-17T00:16:20.004Z,3.80
2018-12-17T00:18:49.012Z,3.90
2018-12-17T00:21:17.249Z,3.90
2018-12-17T00:23:46.020Z,3.90
2018-12-17T00:26:14.261Z,3.90
2018-12-17T00:28:42.470Z,3.90
2018-12-17T00:31:10.718Z,3.90
2018-12-17T00:33:38.974Z,3.80
2018-12-17T00:36:07.162Z,3.90
2018-12-17T00:38:35.428Z,3.90
2018-12-17T00:41:04.431Z,3.90
2018-12-17T00:43:32.681Z,3.90
2018-12-17T00:46:00.877Z,3.90
2018-12-17T00:48:29.870Z,3.90
2018-12-17T00:50:58.846Z,3.90
2018-12-17T00:53:27.814Z,3.90
2018-12-17T00:55:56.095Z,3.90
2018-12-17T00:58:24.234Z,3.90
2018-12-17T01:00:52.498Z,3.90
2018-12-17T01:03:20.692Z,3.90
2018-12-17T01:05:48.946Z,3.90
2018-12-17T01:08:17.145Z,3.90
2018-12-17T01:10:45.399Z,3.80
2018-12-17T01:13:13.649Z,3.90
2018-12-17T01:15:41.908Z,3.90
2018-12-17T01:18:10.092Z,3.90
2018-12-17T01:20:38.364Z,3.90
2018-12-17T01:23:06.546Z,3.80
2018-12-17T01:25:34.749Z,3.90
2018-12-17T01:28:02.944Z,3.90
2018-12-17T01:30:31.170Z,3.90
2018-12-17T01:32:59.406Z,3.80
2018-12-17T01:35:27.603Z,3.80
2018-12-17T01:37:55.856Z,3.90
2018-12-17T01:40:24.094Z,3.80
2018-12-17T01:42:53.057Z,3.80
2018-12-17T01:45:21.315Z,3.80
2018-12-17T01:47:49.521Z,3.80
2018-12-17T01:50:17.722Z,3.80
2018-12-17T01:52:45.926Z,3.80
2018-12-17T01:55:14.131Z,3.80
2018-12-17T01:57:42.353Z,3.80
2018-12-17T02:00:10.608Z,3.80
2018-12-17T02:02:38.829Z,3.80
2018-12-17T02:05:07.058Z,3.80
2018-12-17T02:07:36.041Z,3.90
2018-12-17T02:10:04.282Z,3.80
2018-12-17T02:12:32.553Z,3.80
2018-12-17T02:15:00.792Z,3.80
2018-12-17T02:17:29.863Z,3.90
2018-12-17T02:19:58.038Z,3.90
2018-12-17T02:22:26.259Z,4.00
2018-12-17T02:24:55.215Z,4.00
2018-12-17T02:27:23.443Z,3.90
2018-12-17T02:29:51.689Z,4.00
2018-12-17T02:32:20.930Z,4.00
2018-12-17T02:34:49.154Z,3.90
2018-12-17T02:37:17.340Z,3.90
2018-12-17T02:39:46.319Z,4.00
2018-12-17T02:42:15.299Z,4.00
2018-12-17T02:44:43.540Z,4.00
2018-12-17T02:47:11.722Z,4.00
2018-12-17T02:49:39.947Z,4.00
2018-12-17T02:52:08.916Z,4.00
2018-12-17T02:54:37.185Z,4.00
2018-12-17T02:57:05.382Z,4.00
2018-12-17T02:59:33.642Z,4.10
2018-12-17T03:02:01.835Z,4.00
2018-12-17T03:04:30.057Z,4.00
2018-12-17T03:06:58.294Z,4.00
2018-12-17T03:09:26.536Z,4.00
2018-12-17T03:11:54.759Z,3.90
2018-12-17T03:14:22.975Z,4.00
2018-12-17T03:16:51.283Z,4.00
2018-12-17T03:19:19.769Z,4.10
2018-12-17T03:21:47.962Z,4.10
2018-12-17T03:24:16.961Z,4.00
2018-12-17T03:26:45.972Z,4.00
2018-12-17T03:29:14.176Z,4.00
2018-12-17T03:31:42.447Z,4.00
2018-12-17T03:34:10.614Z,4.00
2018-12-17T03:36:38.869Z,4.00
2018-12-17T03:39:07.070Z,4.10
2018-12-17T03:41:35.290Z,4.00
2018-12-17T03:44:03.535Z,4.00
2018-12-17T03:46:31.744Z,4.00
2018-12-17T03:48:59.937Z,4.10
2018-12-17T03:51:28.946Z,4.00
2018-12-17T03:53:57.224Z,3.90
2018-12-17T03:56:26.222Z,4.00
2018-12-17T03:58:59.240Z,3.90
2018-12-17T04:01:22.655Z,4.00
2018-12-17T04:03:51.672Z,4.00
2018-12-17T04:06:19.896Z,4.00
2018-12-17T04:08:48.129Z,4.00
2018-12-17T04:11:16.372Z,4.00
2018-12-17T04:13:45.389Z,4.00
2018-12-17T04:16:14.429Z,4.00
2018-12-17T04:18:42.635Z,4.00
2018-12-17T04:21:10.864Z,4.00
2018-12-17T04:23:39.129Z,4.10
2018-12-17T04:26:07.322Z,4.00
2018-12-17T04:28:35.535Z,4.00
2018-12-17T04:31:03.787Z,4.10
2018-12-17T04:33:32.062Z,4.00
2018-12-17T04:36:00.249Z,4.00
2018-12-17T04:38:28.455Z,3.90
2018-12-17T04:40:57.429Z,4.00
2018-12-17T04:43:26.389Z,3.90
2018-12-17T04:45:54.601Z,3.90
2018-12-17T04:48:22.816Z,3.90
2018-12-17T04:50:51.021Z,3.80
2018-12-17T04:53:19.265Z,3.80
2018-12-17T04:55:47.453Z,3.90
2018-12-17T04:58:15.989Z,3.90
2018-12-17T05:00:44.221Z,3.90
2018-12-17T05:03:12.458Z,3.90
2018-12-17T05:05:41.484Z,3.90
2018-12-17T05:08:09.673Z,3.90
2018-12-17T05:10:37.923Z,4.00
2018-12-17T05:13:06.157Z,4.00
2018-12-17T05:15:34.355Z,4.00
2018-12-17T05:18:03.371Z,4.00
2018-12-17T05:20:31.573Z,4.00
2018-12-17T05:22:59.817Z,4.00
2018-12-17T05:25:28.078Z,4.10
2018-12-17T05:27:57.064Z,4.10
2018-12-17T05:30:26.091Z,4.10
2018-12-17T05:32:54.286Z,4.10
2018-12-17T05:35:22.539Z,4.10
2018-12-17T05:37:50.783Z,4.00
2018-12-17T05:40:18.976Z,4.00
2018-12-17T05:42:47.937Z,4.10
2018-12-17T05:45:16.143Z,4.10
2018-12-17T05:47:44.347Z,4.10
2018-12-17T05:50:12.562Z,3.90
2018-12-17T05:52:40.805Z,4.00
2018-12-17T05:55:09.282Z,4.00
2018-12-17T05:57:37.486Z,4.00
2018-12-17T06:00:05.687Z,3.90
2018-12-17T06:02:33.894Z,4.00
2018-12-17T06:05:02.128Z,4.00
2018-12-17T06:07:30.386Z,4.10
2018-12-17T06:09:58.616Z,4.10
2018-12-17T06:12:26.808Z,4.00
2018-12-17T06:14:55.023Z,4.10
2018-12-17T06:17:23.269Z,4.10
2018-12-17T06:19:51.508Z,4.10
2018-12-17T06:22:20.486Z,4.10
2018-12-17T06:24:48.738Z,4.10
2018-12-17T06:27:17.003Z,4.20
2018-12-17T06:29:45.198Z,4.30
2018-12-17T06:32:13.502Z,4.20
2018-12-17T06:34:41.682Z,4.10
2018-12-17T06:37:10.701Z,4.20
2018-12-17T06:39:38.942Z,4.20
2018-12-17T06:42:07.166Z,4.10
2018-12-17T06:44:35.408Z,4.00
2018-12-17T06:47:04.412Z,4.10
2018-12-17T06:49:32.664Z,4.10
2018-12-17T06:52:00.940Z,4.10
2018-12-17T06:54:29.185Z,4.10
2018-12-17T06:56:57.376Z,4.10
2018-12-17T06:59:25.646Z,4.10
2018-12-17T07:01:53.876Z,4.00
2018-12-17T07:04:22.092Z,4.00
2018-12-17T07:06:50.340Z,3.90
2018-12-17T07:09:18.592Z,3.90
2018-12-17T07:11:47.628Z,4.00
2018-12-17T07:14:16.608Z,4.00
2018-12-17T07:16:44.813Z,4.00
2018-12-17T07:19:13.354Z,4.10
2018-12-17T07:21:41.584Z,4.10
2018-12-17T07:24:09.775Z,4.20
2018-12-17T07:26:37.989Z,4.20
2018-12-17T07:29:06.230Z,4.30
2018-12-17T07:31:34.433Z,4.20
2018-12-17T07:34:02.675Z,4.30
2018-12-17T07:36:30.917Z,4.20
2018-12-17T07:38:59.874Z,4.10
2018-12-17T07:41:28.085Z,4.10
2018-12-17T07:43:56.286Z,4.20
2018-12-17T07:46:24.542Z,4.20
2018-12-17T07:48:52.778Z,4.10
2018-12-17T07:51:21.785Z,4.10
2018-12-17T07:53:50.030Z,4.20
2018-12-17T07:56:19.047Z,4.20
2018-12-17T07:58:47.283Z,4.10
2018-12-17T08:01:15.489Z,4.20
2018-12-17T08:03:43.733Z,4.00
2018-12-17T08:06:11.961Z,4.10
2018-12-17T08:08:40.210Z,3.90
2018-12-17T08:11:08.433Z,4.10
2018-12-17T08:13:36.633Z,4.00
2018-12-17T08:16:04.879Z,4.00
2018-12-17T08:18:33.094Z,4.10
2018-12-17T08:21:01.295Z,4.10
2018-12-17T08:23:30.311Z,4.20
2018-12-17T08:25:58.549Z,4.20
2018-12-17T08:28:26.758Z,4.30
2018-12-17T08:30:54.948Z,4.30
2018-12-17T08:33:23.165Z,4.40
2018-12-17T08:35:51.401Z,4.50
2018-12-17T08:38:19.651Z,4.40
2018-12-17T08:40:48.613Z,4.60
2018-12-17T08:43:17.121Z,4.60
2018-12-17T08:45:46.125Z,4.70
2018-12-17T08:48:14.367Z,4.60
2018-12-17T08:50:42.587Z,4.70
2018-12-17T08:53:10.831Z,4.70
2018-12-17T08:55:39.096Z,4.70
2018-12-17T08:58:07.302Z,4.80
2018-12-17T09:00:36.309Z,4.90
2018-12-17T09:03:04.548Z,4.90
2018-12-17T09:05:32.794Z,4.90
2018-12-17T09:08:01.041Z,4.80
2018-12-17T09:10:29.288Z,4.70
2018-12-17T09:12:58.251Z,4.80
2018-12-17T09:15:26.519Z,4.80
2018-12-17T09:17:54.787Z,4.90
2018-12-17T09:20:23.737Z,4.90
2018-12-17T09:22:52.741Z,4.90
2018-12-17T09:25:21.725Z,5.00
2018-12-17T09:27:50.750Z,5.00
2018-12-17T09:30:18.948Z,5.00
2018-12-17T09:32:47.155Z,5.10
2018-12-17T09:35:15.357Z,5.10
2018-12-17T09:37:43.608Z,5.30
2018-12-17T09:40:11.793Z,5.20
2018-12-17T09:42:40.841Z,5.20
2018-12-17T09:45:09.071Z,5.20
2018-12-17T09:47:38.113Z,5.20
2018-12-17T09:50:06.335Z,5.20
2018-12-17T09:52:35.353Z,5.30
2018-12-17T09:55:03.557Z,5.30
2018-12-17T09:57:31.817Z,5.30
2018-12-17T10:00:00.001Z,5.40
2018-12-17T10:02:28.324Z,5.30
2018-12-17T10:04:56.546Z,5.20
2018-12-17T10:07:30.420Z,5.10
2018-12-17T10:09:52.993Z,5.00
2018-12-17T10:12:21.183Z,4.90
2018-12-17T10:14:50.213Z,4.40
2018-12-17T10:17:18.405Z,4.40
2018-12-17T10:19:47.424Z,4.30
2018-12-17T10:22:15.613Z,4.30
2018-12-17T10:24:43.836Z,4.30
2018-12-17T10:27:12.075Z,4.20
2018-12-17T10:29:40.343Z,4.50
2018-12-17T10:32:08.537Z,4.60
2018-12-17T10:34:36.783Z,4.50
2018-12-17T10:37:04.996Z,4.40
2018-12-17T10:39:33.207Z,4.40
2018-12-17T10:42:01.445Z,4.40
2018-12-17T10:44:29.665Z,4.60
2018-12-17T10:46:58.636Z,4.90
2018-12-17T10:49:27.642Z,5.00
2018-12-17T10:51:56.611Z,5.10
2018-12-17T10:54:24.865Z,5.10
2018-12-17T10:56:53.106Z,5.10
2018-12-17T10:59:22.156Z,5.30
2018-12-17T11:01:51.896Z,5.30
2018-12-17T11:04:20.110Z,5.40
2018-12-17T11:06:48.315Z,5.40
2018-12-17T11:09:16.575Z,5.50
2018-12-17T11:11:44.813Z,5.80
2018-12-17T11:14:14.383Z,5.70
2018-12-17T11:16:42.593Z,5.70
2018-12-17T11:19:11.598Z,6.00
2018-12-17T11:21:40.607Z,6.00
2018-12-17T11:24:08.844Z,5.90
2018-12-17T11:26:37.086Z,5.60
2018-12-17T11:29:05.320Z,5.80
2018-12-17T11:31:34.364Z,5.60
2018-12-17T11:34:02.592Z,5.60
2018-12-17T11:36:31.650Z,5.60
2018-12-17T11:38:59.854Z,5.60
2018-12-17T11:41:28.833Z,5.80
2018-12-17T11:43:57.084Z,5.80
2018-12-17T11:46:25.295Z,6.00
2018-12-17T11:48:54.489Z,6.10
2018-12-17T11:51:23.465Z,6.10
2018-12-17T11:53:51.697Z,6.10
2018-12-17T11:56:19.937Z,6.10
2018-12-17T11:58:48.154Z,6.00
2018-12-17T12:01:16.351Z,6.20
2018-12-17T12:03:44.624Z,6.10
2018-12-17T12:06:14.159Z,6.30
2018-12-17T12:08:41.065Z,6.10
2018-12-17T12:11:09.271Z,6.20
2018-12-17T12:13:37.518Z,6.40
2018-12-17T12:16:05.759Z,6.40
2018-12-17T12:18:34.730Z,6.50
2018-12-17T12:21:02.948Z,6.40
2018-12-17T12:23:31.203Z,6.50
2018-12-17T12:26:00.292Z,6.30
2018-12-17T12:28:28.480Z,6.30
2018-12-17T12:31:00.416Z,6.50
2018-12-17T12:33:26.440Z,6.40
2018-12-17T12:35:54.674Z,6.40
2018-12-17T12:38:22.886Z,6.50
2018-12-17T12:40:51.101Z,6.50
2018-12-17T12:43:19.307Z,6.60
2018-12-17T12:45:47.521Z,6.40
2018-12-17T12:48:15.748Z,6.20
2018-12-17T12:50:44.765Z,6.30
2018-12-17T12:53:12.955Z,6.30
2018-12-17T12:55:41.193Z,6.30
2018-12-17T12:58:09.426Z,6.30
2018-12-17T13:00:37.682Z,6.40
2018-12-17T13:03:05.925Z,6.40
2018-12-17T13:05:34.122Z,6.40
2018-12-17T13:08:02.330Z,6.40
2018-12-17T13:10:30.553Z,6.30
2018-12-17T13:12:58.825Z,6.30
2018-12-17T13:15:27.017Z,6.40
2018-12-17T13:17:55.229Z,6.50
2018-12-17T13:20:23.479Z,6.20
2018-12-17T13:22:51.724Z,6.40
2018-12-17T13:25:20.692Z,6.60
2018-12-17T13:27:49.714Z,6.70
2018-12-17T13:30:17.910Z,6.70
2018-12-17T13:32:46.158Z,6.70
2018-12-17T13:35:14.397Z,6.70
2018-12-17T13:37:42.593Z,6.70
2018-12-17T13:40:11.597Z,6.60
2018-12-17T13:42:40.565Z,6.70
2018-12-17T13:45:08.801Z,6.70
2018-12-17T13:47:37.018Z,6.70
2018-12-17T13:50:10.813Z,6.80
2018-12-17T13:52:44.571Z,6.90
2018-12-17T13:55:12.811Z,6.90
2018-12-17T13:57:41.033Z,6.90
2018-12-17T14:00:09.249Z,6.90
2018-12-17T14:02:37.488Z,6.90
2018-12-17T14:05:05.738Z,7.00
2018-12-17T14:07:34.738Z,6.90
2018-12-17T14:10:09.331Z,6.60
2018-12-17T14:12:37.613Z,6.70
2018-12-17T14:15:05.830Z,6.80
2018-12-17T14:17:36.011Z,6.70
2018-12-17T14:20:09.978Z,6.60
2018-12-17T14:22:38.195Z,6.60
2018-12-17T14:25:06.435Z,6.60
2018-12-17T14:27:34.671Z,6.50
2018-12-17T14:30:03.649Z,6.60
2018-12-17T14:32:32.649Z,6.60
2018-12-17T14:35:01.645Z,6.50
2018-12-17T14:37:30.702Z,6.40
2018-12-17T14:39:59.153Z,6.40
2018-12-17T14:42:27.366Z,6.40
2018-12-17T14:44:55.602Z,6.50
2018-12-17T14:47:23.810Z,6.50
2018-12-17T14:49:52.053Z,6.60
2018-12-17T14:52:20.309Z,6.50
2018-12-17T14:54:49.289Z,6.20
2018-12-17T14:57:17.489Z,6.20
2018-12-17T14:59:45.752Z,6.20
2018-12-17T15:02:14.751Z,6.20
2018-12-17T15:04:43.713Z,6.30
2018-12-17T15:07:11.989Z,6.20
2018-12-17T15:09:40.225Z,6.20
2018-12-17T15:12:08.437Z,6.20
2018-12-17T15:14:36.693Z,6.10
2018-12-17T15:17:05.205Z,6.10
2018-12-17T15:19:33.398Z,6.10
2018-12-17T15:22:02.428Z,6.10
2018-12-17T15:24:30.680Z,6.10
2018-12-17T15:26:59.650Z,6.00
2018-12-17T15:29:27.921Z,6.00
2018-12-17T15:31:57.792Z,5.90
2018-12-17T15:34:25.109Z,5.90
2018-12-17T15:36:54.072Z,5.90
2018-12-17T15:39:22.327Z,5.90
2018-12-17T15:41:50.576Z,5.80
2018-12-17T15:44:18.838Z,5.90
2018-12-17T15:46:47.850Z,5.80
2018-12-17T15:49:16.822Z,5.60
2018-12-17T15:51:45.826Z,5.60
2018-12-17T15:54:14.818Z,5.60
2018-12-17T15:56:43.042Z,5.60
2018-12-17T15:59:11.311Z,5.60
2018-12-17T16:01:39.542Z,5.60
2018-12-17T16:04:08.530Z,5.70
2018-12-17T16:06:37.508Z,5.70
2018-12-17T16:09:05.760Z,5.60
2018-12-17T16:11:33.996Z,5.60
2018-12-17T16:14:02.193Z,5.70
2018-12-17T16:16:30.412Z,5.60
2018-12-17T16:18:58.612Z,5.60
2018-12-17T16:21:27.627Z,5.70
2018-12-17T16:23:55.842Z,5.70
2018-12-17T16:26:24.111Z,5.80
2018-12-17T16:28:52.315Z,5.90
2018-12-17T16:31:20.600Z,5.90
2018-12-17T16:33:48.811Z,5.80
2018-12-17T16:36:17.053Z,5.80
2018-12-17T16:38:45.303Z,5.60
2018-12-17T16:41:13.555Z,5.70
2018-12-17T16:43:41.808Z,5.60
2018-12-17T16:46:10.056Z,5.60
2018-12-17T16:48:38.315Z,5.60
2018-12-17T16:51:06.517Z,5.60
2018-12-17T16:53:34.726Z,5.60
2018-12-17T16:56:02.995Z,5.70
2018-12-17T16:58:31.965Z,5.70
2018-12-17T17:01:00.976Z,5.70
2018-12-17T17:03:29.217Z,5.70
2018-12-17T17:05:57.421Z,5.60
2018-12-17T17:08:26.651Z,5.60
2018-12-17T17:10:54.894Z,5.60
2018-12-17T17:13:23.865Z,5.60
2018-12-17T17:15:52.071Z,5.60
2018-12-17T17:18:20.267Z,5.70
2018-12-17T17:20:48.512Z,5.60
2018-12-17T17:23:17.466Z,5.40
2018-12-17T17:25:45.727Z,5.50
2018-12-17T17:28:13.931Z,5.60
2018-12-17T17:30:42.192Z,5.60
2018-12-17T17:33:10.395Z,5.70
2018-12-17T17:35:38.648Z,5.60
2018-12-17T17:38:06.853Z,5.70
2018-12-17T17:40:35.079Z,5.70
2018-12-17T17:43:03.298Z,5.80
2018-12-17T17:45:32.311Z,5.70
2018-12-17T17:48:01.345Z,5.70
2018-12-17T17:50:29.544Z,5.70
2018-12-17T17:52:57.803Z,5.80
2018-12-17T17:55:26.051Z,5.70
2018-12-17T17:57:54.307Z,5.70
2018-12-17T18:00:23.256Z,5.60
2018-12-17T18:02:51.536Z,5.60
2018-12-17T18:05:19.723Z,5.60
2018-12-17T18:07:47.961Z,5.50
2018-12-17T18:10:16.173Z,5.60
2018-12-17T18:12:44.372Z,5.60
2018-12-17T18:15:13.348Z,5.80
2018-12-17T18:17:41.652Z,5.80
2018-12-17T18:20:09.911Z,5.70
2018-12-17T18:22:38.157Z,5.60
2018-12-17T18:25:06.446Z,5.70
2018-12-17T18:27:34.641Z,5.60
2018-12-17T18:30:02.862Z,5.60
2018-12-17T18:32:31.114Z,5.50
2018-12-17T18:34:59.290Z,5.40
2018-12-17T18:37:27.520Z,5.50
2018-12-17T18:39:55.726Z,5.50
2018-12-17T18:42:24.704Z,5.50
2018-12-17T18:44:52.952Z,5.50
2018-12-17T18:47:25.604Z,5.40
2018-12-17T18:49:49.368Z,5.40
2018-12-17T18:52:18.343Z,5.20
2018-12-17T18:54:46.545Z,5.10
2018-12-17T18:57:14.878Z,5.20
2018-12-17T18:59:43.059Z,5.20
2018-12-17T19:02:11.317Z,5.30
2018-12-17T19:04:40.360Z,5.30
2018-12-17T19:07:09.340Z,5.30
2018-12-17T19:09:38.361Z,5.40
2018-12-17T19:12:06.628Z,5.30
2018-12-17T19:14:35.641Z,5.20
2018-12-17T19:17:04.270Z,5.10
2018-12-17T19:19:32.538Z,5.00
2018-12-17T19:22:00.732Z,5.00
2018-12-17T19:24:29.756Z,5.10
2018-12-17T19:26:58.756Z,5.00
2018-12-17T19:29:26.990Z,5.10
2018-12-17T19:31:55.423Z,5.10
2018-12-17T19:34:23.620Z,5.20
2018-12-17T19:36:51.840Z,5.20
2018-12-17T19:39:20.863Z,5.10
2018-12-17T19:41:49.080Z,5.10
2018-12-17T19:44:17.321Z,5.10
2018-12-17T19:46:45.530Z,5.20
2018-12-17T19:49:13.989Z,5.20
2018-12-17T19:51:42.234Z,5.20
2018-12-17T19:54:11.228Z,4.90
2018-12-17T19:56:40.223Z,5.00
2018-12-17T19:59:09.193Z,5.00
2018-12-17T20:01:37.467Z,5.00
2018-12-17T20:04:05.705Z,5.00
2018-12-17T20:06:33.980Z,5.00
2018-12-17T20:09:02.198Z,5.00
2018-12-17T20:11:30.398Z,4.80
2018-12-17T20:13:59.480Z,4.90
2018-12-17T20:16:27.766Z,4.90
2018-12-17T20:18:55.973Z,4.90
2018-12-17T20:21:24.178Z,4.90
2018-12-17T20:23:52.455Z,5.00
2018-12-17T20:26:20.930Z,5.00
2018-12-17T20:28:49.173Z,5.00
2018-12-17T20:31:18.144Z,5.10
2018-12-17T20:33:47.131Z,5.20
2018-12-17T20:36:16.100Z,5.10
2018-12-17T20:38:44.319Z,5.10
2018-12-17T20:41:12.568Z,5.20
2018-12-17T20:43:40.835Z,5.20
2018-12-17T20:46:09.042Z,5.30
2018-12-17T20:48:38.096Z,5.20
2018-12-17T20:51:06.331Z,5.10
2018-12-17T20:53:34.547Z,5.10
2018-12-17T20:56:02.770Z,5.10
2018-12-17T20:58:31.778Z,5.00
2018-12-17T21:01:00.000Z,5.00
2018-12-17T21:03:28.199Z,5.00
2018-12-17T21:05:57.188Z,5.00
2018-12-17T21:08:25.422Z,5.00
2018-12-17T21:10:53.639Z,4.90
2018-12-17T21:13:21.842Z,5.00
2018-12-17T21:15:50.871Z,5.00
2018-12-17T21:18:19.885Z,5.00
2018-12-17T21:20:48.854Z,4.90
2018-12-17T21:23:17.115Z,4.90
2018-12-17T21:25:45.384Z,5.00
2018-12-17T21:28:14.381Z,5.00
2018-12-17T21:30:45.021Z,5.10
2018-12-17T21:33:13.208Z,5.00
2018-12-17T21:35:41.495Z,5.10
2018-12-17T21:38:09.725Z,5.20
2018-12-17T21:40:38.707Z,5.10
2018-12-17T21:43:07.749Z,5.10
2018-12-17T21:45:35.968Z,5.10
2018-12-17T21:48:04.221Z,5.10
2018-12-17T21:50:32.416Z,5.20
2018-12-17T21:53:00.633Z,5.20
2018-12-17T21:55:28.888Z,5.20
2018-12-17T21:57:57.137Z,5.20
2018-12-17T22:00:25.361Z,5.20
2018-12-17T22:02:53.632Z,5.10
2018-12-17T22:05:21.878Z,5.20
2018-12-17T22:07:50.070Z,5.10
2018-12-17T22:10:24.658Z,5.10
2018-12-17T22:12:52.876Z,5.10
2018-12-17T22:15:21.856Z,5.10
2018-12-17T22:17:50.941Z,4.90
2018-12-17T22:20:19.197Z,4.90
2018-12-17T22:22:47.430Z,4.90
2018-12-17T22:25:16.417Z,4.70
2018-12-17T22:27:45.376Z,4.70
2018-12-17T22:30:13.606Z,4.70
2018-12-17T22:32:42.588Z,4.80
2018-12-17T22:35:10.800Z,4.80
2018-12-17T22:37:39.008Z,4.70
2018-12-17T22:40:07.238Z,4.70
2018-12-17T22:42:35.489Z,4.70
2018-12-17T22:45:04.501Z,4.70
2018-12-17T22:47:32.752Z,4.70
2018-12-17T22:50:01.763Z,4.50
2018-12-17T22:52:29.980Z,4.50
2018-12-17T22:54:58.216Z,4.60
2018-12-17T22:57:26.413Z,4.50
2018-12-17T22:59:54.606Z,4.50
2018-12-17T23:02:22.822Z,4.50
2018-12-17T23:04:51.792Z,4.50
2018-12-17T23:07:19.997Z,4.50
2018-12-17T23:10:00.065Z,4.50
2018-12-17T23:12:40.118Z,4.50
2018-12-17T23:15:20.116Z,4.40
2018-12-17T23:17:47.841Z,4.40
2018-12-17T23:20:16.085Z,4.50
2018-12-17T23:22:45.059Z,4.50
2018-12-17T23:25:13.303Z,4.50
2018-12-17T23:27:41.565Z,4.40
2018-12-17T23:30:09.753Z,4.40
2018-12-17T23:32:38.004Z,4.40
2018-12-17T23:35:06.201Z,4.50
2018-12-17T23:37:34.457Z,4.50
2018-12-17T23:40:03.417Z,4.50
2018-12-17T23:42:31.659Z,4.40
2018-12-17T23:44:59.862Z,4.50
2018-12-17T23:47:28.072Z,4.60
2018-12-17T23:49:57.053Z,4.60
2018-12-17T23:52:26.063Z,4.60
2018-12-17T23:54:55.039Z,4.70
2018-12-17T23:57:24.044Z,4.70
2018-12-17T23:59:53.018Z,4.70
